createdAt,value
2022-11-21T00:02:41.932Z,71.20
2022-11-21T00:05:55.576Z,74.35
2022-11-21T00:09:07.271Z,78.73
2022-11-21T00:12:18.967Z,76.13
2022-11-21T00:15:32.222Z,72.38
2022-11-21T00:18:44.630Z,75.45
2022-11-21T00:21:56.509Z,75.45
2022-11-21T00:25:08.667Z,76.13
2022-11-21T00:28:20.269Z,73.05
2022-11-21T00:31:32.306Z,71.63
2022-11-21T00:34:44.018Z,71.08
2022-11-21T00:37:55.640Z,75.95
2022-11-21T00:41:07.351Z,79.73
2022-11-21T00:44:18.943Z,77.48
2022-11-21T00:47:30.750Z,73.00
2022-11-21T00:50:42.604Z,74.78
2022-11-21T00:53:54.328Z,75.88
2022-11-21T00:57:06.123Z,76.68
2022-11-21T01:00:21.625Z,76.75
2022-11-21T01:03:33.260Z,73.65
2022-11-21T01:06:46.505Z,74.35
2022-11-21T01:09:58.159Z,74.33
2022-11-21T01:13:09.893Z,77.15
2022-11-21T01:16:25.973Z,78.65
2022-11-21T01:19:37.954Z,75.50
2022-11-21T01:22:49.544Z,74.90
2022-11-21T01:26:03.186Z,73.33
2022-11-21T01:29:15.002Z,80.45
2022-11-21T01:32:26.663Z,79.63
2022-11-21T01:35:38.355Z,73.68
2022-11-21T01:38:52.453Z,77.50
2022-11-21T01:42:03.989Z,73.45
2022-11-21T01:45:56.147Z,73.83
2022-11-21T01:49:12.404Z,77.15
2022-11-21T01:52:27.952Z,73.13
2022-11-21T01:55:41.097Z,69.50
2022-11-21T01:58:55.955Z,69.98
2022-11-21T02:02:11.752Z,69.55
2022-11-21T02:05:27.840Z,69.63
2022-11-21T02:08:39.837Z,65.98
2022-11-21T02:11:56.801Z,63.98
2022-11-21T02:18:19.139Z,66.48
2022-11-21T02:21:40.780Z,65.10
2022-11-21T02:25:01.153Z,68.58
2022-11-21T02:28:16.012Z,69.58
2022-11-21T02:31:27.916Z,71.45
2022-11-21T02:34:39.703Z,69.38
2022-11-21T02:37:55.519Z,67.88
2022-11-21T02:41:16.443Z,65.65
2022-11-21T02:44:33.843Z,63.33
2022-11-21T02:47:47.582Z,62.75
2022-11-21T02:50:59.386Z,64.35
2022-11-21T02:54:11.487Z,63.10
2022-11-21T02:57:23.276Z,66.23
2022-11-21T03:00:35.087Z,65.88
2022-11-21T03:03:47.180Z,65.83
2022-11-21T03:06:58.980Z,65.03
2022-11-21T03:10:12.745Z,61.78
2022-11-21T03:13:24.630Z,60.55
2022-11-21T03:16:36.338Z,59.63
2022-11-21T03:19:48.035Z,59.08
2022-11-21T03:22:59.931Z,56.93
2022-11-21T03:26:11.596Z,59.28
2022-11-21T03:29:23.232Z,65.40
2022-11-21T03:32:34.836Z,67.23
2022-11-21T03:35:46.514Z,61.28
2022-11-21T03:38:58.145Z,58.98
2022-11-21T03:42:10.102Z,64.33
2022-11-21T03:45:22.285Z,70.38
2022-11-21T03:48:33.907Z,72.43
2022-11-21T03:51:46.897Z,85.15
2022-11-21T03:54:58.604Z,84.00
2022-11-21T03:58:10.494Z,71.08
2022-11-21T04:01:22.884Z,78.80
2022-11-21T04:04:36.157Z,72.80
2022-11-21T04:07:47.970Z,78.38
2022-11-21T04:11:00.770Z,69.88
2022-11-21T04:14:12.558Z,66.55
2022-11-21T04:17:24.250Z,61.88
2022-11-21T04:20:35.944Z,62.33
2022-11-21T04:23:47.505Z,62.08
2022-11-21T04:26:59.610Z,59.25
2022-11-21T04:30:13.699Z,59.18
2022-11-21T04:33:25.787Z,60.05
2022-11-21T04:36:37.788Z,60.98
2022-11-21T04:39:49.657Z,62.95
2022-11-21T04:43:01.595Z,62.00
2022-11-21T04:46:13.336Z,67.78
2022-11-21T04:49:25.120Z,71.05
2022-11-21T04:52:36.908Z,79.00
2022-11-21T04:55:48.687Z,73.03
2022-11-21T04:59:00.676Z,66.23
2022-11-21T05:02:12.266Z,66.45
2022-11-21T05:05:24.077Z,71.30
2022-11-21T05:08:37.024Z,68.18
2022-11-21T05:12:03.669Z,69.43
2022-11-21T05:15:19.259Z,63.45
2022-11-21T05:18:30.306Z,62.15
2022-11-21T05:21:41.895Z,66.68
2022-11-21T05:24:53.605Z,65.83
2022-11-21T05:28:05.287Z,66.90
2022-11-21T05:31:17.112Z,63.60
2022-11-21T05:34:29.150Z,59.08
2022-11-21T05:37:41.168Z,65.43
2022-11-21T05:40:53.044Z,65.20
2022-11-21T05:44:05.014Z,67.98
2022-11-21T05:47:17.208Z,73.58
2022-11-21T05:50:29.111Z,72.50
2022-11-21T05:53:41.522Z,78.13
2022-11-21T05:56:53.566Z,71.75
2022-11-21T06:00:05.524Z,72.88
2022-11-21T06:03:34.515Z,72.63
2022-11-21T06:06:46.167Z,71.58
2022-11-21T06:09:57.917Z,68.45
2022-11-21T06:13:14.372Z,72.30
2022-11-21T06:16:27.045Z,69.43
2022-11-21T06:19:38.942Z,72.70
2022-11-21T06:22:50.534Z,70.28
2022-11-21T06:26:06.423Z,72.40
2022-11-21T06:29:22.283Z,69.10
2022-11-21T06:32:34.068Z,65.20
2022-11-21T06:35:46.243Z,69.00
2022-11-21T06:38:59.538Z,65.10
2022-11-21T06:42:12.008Z,70.48
2022-11-21T06:45:23.839Z,69.03
2022-11-21T06:48:36.063Z,67.30
2022-11-21T06:51:47.753Z,65.90
2022-11-21T06:54:59.479Z,67.90
2022-11-21T06:58:11.291Z,69.68
2022-11-21T07:01:23.466Z,70.15
2022-11-21T07:04:35.648Z,69.45
2022-11-21T07:07:47.552Z,70.80
2022-11-21T07:11:23.544Z,88.13
2022-11-21T07:14:13.702Z,94.58
2022-11-21T07:17:25.466Z,72.05
2022-11-21T07:20:38.368Z,74.03
2022-11-21T07:23:50.213Z,75.65
2022-11-21T07:27:03.365Z,73.50
2022-11-21T07:30:18.847Z,70.78
2022-11-21T07:33:30.779Z,77.40
2022-11-21T07:36:42.731Z,75.88
2022-11-21T07:39:54.504Z,73.08
2022-11-21T07:43:11.205Z,73.95
2022-11-21T07:49:33.549Z,76.38
2022-11-21T07:52:47.010Z,73.55
2022-11-21T07:55:58.695Z,78.58
2022-11-21T07:59:10.660Z,77.85
2022-11-21T08:02:27.175Z,77.45
2022-11-21T08:05:41.794Z,74.30
2022-11-21T08:08:55.682Z,72.53
2022-11-21T08:12:07.569Z,74.10
2022-11-21T08:15:20.294Z,70.48
2022-11-21T08:18:32.023Z,67.73
2022-11-21T08:21:43.779Z,87.85
2022-11-21T08:24:55.590Z,78.10
2022-11-21T08:28:07.325Z,77.68
2022-11-21T08:31:20.202Z,77.15
2022-11-21T08:34:32.023Z,73.35
2022-11-21T08:37:43.683Z,70.15
2022-11-21T08:40:59.594Z,72.95
2022-11-21T08:44:14.368Z,69.95
2022-11-21T08:47:26.510Z,76.20
2022-11-21T08:50:46.871Z,85.45
2022-11-21T08:53:58.558Z,72.23
2022-11-21T08:57:10.408Z,72.90
2022-11-21T09:00:34.012Z,65.33
2022-11-21T09:03:45.848Z,67.38
2022-11-21T09:06:57.772Z,65.20
2022-11-21T09:10:13.254Z,67.35
2022-11-21T09:13:25.204Z,67.55
2022-11-21T09:16:52.061Z,71.58
2022-11-21T09:20:04.000Z,77.33
2022-11-21T09:23:18.101Z,68.33
2022-11-21T09:26:29.902Z,61.75
2022-11-21T09:29:42.495Z,60.50
2022-11-21T09:32:54.203Z,62.73
2022-11-21T09:36:07.502Z,61.63
2022-11-21T09:39:21.143Z,59.53
2022-11-21T09:43:07.029Z,58.58
2022-11-21T09:46:23.652Z,61.65
2022-11-21T09:49:38.038Z,63.75
2022-11-21T09:52:54.352Z,63.53
2022-11-21T09:56:10.665Z,57.83
2022-11-21T09:59:37.261Z,58.80
2022-11-21T10:02:49.128Z,60.80
2022-11-21T10:06:05.855Z,61.65
2022-11-21T10:09:23.724Z,57.98
2022-11-21T10:12:41.576Z,56.08
2022-11-21T10:16:03.235Z,58.75
2022-11-21T10:19:44.545Z,56.28
2022-11-21T10:23:22.161Z,58.00
2022-11-21T10:26:40.744Z,60.18
2022-11-21T10:29:59.117Z,135.58
2022-11-21T10:33:15.950Z,67.90
2022-11-21T10:39:49.328Z,54.95
2022-11-21T10:43:08.445Z,57.87
2022-11-21T10:46:20.211Z,56.60
2022-11-21T10:49:36.871Z,55.70
2022-11-21T10:52:53.968Z,53.25
2022-11-21T10:56:13.678Z,52.45
2022-11-21T10:59:32.017Z,55.78
2022-11-21T11:02:44.309Z,56.38
2022-11-21T11:06:03.448Z,55.08
2022-11-21T11:09:30.869Z,50.85
2022-11-21T11:13:01.589Z,51.13
2022-11-21T11:16:24.161Z,52.58
2022-11-21T11:19:40.345Z,53.53
2022-11-21T11:22:50.359Z,53.63
2022-11-21T11:26:05.300Z,51.78
2022-11-21T11:29:22.496Z,50.78
2022-11-21T11:35:45.002Z,52.75
2022-11-21T11:39:02.101Z,51.78
2022-11-21T11:43:03.663Z,51.75
2022-11-21T11:46:52.444Z,52.90
2022-11-21T11:50:18.068Z,52.63
2022-11-21T11:53:35.827Z,51.25
2022-11-21T11:56:51.386Z,76.70
2022-11-21T12:00:11.557Z,59.78
2022-11-21T12:03:29.237Z,51.50
2022-11-21T12:10:08.326Z,49.40
2022-11-21T12:13:25.104Z,50.58
2022-11-21T12:16:37.941Z,52.73
2022-11-21T12:19:50.038Z,52.68
2022-11-21T12:23:03.242Z,50.98
2022-11-21T12:26:38.303Z,51.08
2022-11-21T12:30:05.535Z,49.65
2022-11-21T12:33:24.511Z,51.73
2022-11-21T12:36:44.640Z,50.95
2022-11-21T12:40:23.639Z,52.00
2022-11-21T12:43:43.807Z,50.60
2022-11-21T12:47:20.589Z,49.98
2022-11-21T12:50:56.554Z,49.18
2022-11-21T12:54:44.624Z,50.10
2022-11-21T12:58:33.772Z,52.38
2022-11-21T13:01:55.833Z,51.83
2022-11-21T13:05:25.432Z,50.05
2022-11-21T13:08:42.498Z,48.83
2022-11-21T13:12:19.712Z,50.28
2022-11-21T13:15:38.496Z,53.60
2022-11-21T13:18:55.635Z,51.18
2022-11-21T13:22:07.314Z,47.70
2022-11-21T13:25:52.804Z,50.33
2022-11-21T13:29:18.688Z,53.10
2022-11-21T13:32:50.646Z,52.80
2022-11-21T13:36:05.620Z,52.80
2022-11-21T13:39:37.157Z,50.83
2022-11-21T13:43:38.030Z,50.53
2022-11-21T13:47:13.898Z,51.68
2022-11-21T13:50:52.162Z,53.15
2022-11-21T13:54:50.135Z,51.28
2022-11-21T13:58:27.238Z,50.95
2022-11-21T14:02:35.672Z,51.30
2022-11-21T14:06:44.823Z,51.25
2022-11-21T14:14:37.639Z,60.80
2022-11-21T14:18:24.572Z,49.15
2022-11-21T14:21:52.268Z,51.80
2022-11-21T14:25:30.861Z,51.10
2022-11-21T14:32:12.822Z,46.98
2022-11-21T14:35:34.883Z,48.55
2022-11-21T14:39:14.001Z,48.58
2022-11-21T14:42:09.945Z,48.63
2022-11-21T14:45:29.038Z,47.50
2022-11-21T14:48:42.483Z,46.38
2022-11-21T14:51:58.167Z,48.45
2022-11-21T14:55:30.734Z,47.95
2022-11-21T14:58:52.392Z,48.60
2022-11-21T15:02:08.099Z,50.15
2022-11-21T15:06:01.457Z,49.40
2022-11-21T15:12:12.443Z,50.25
2022-11-21T15:15:34.908Z,53.98
2022-11-21T15:18:48.608Z,49.40
2022-11-21T15:22:04.691Z,49.30
2022-11-21T15:25:24.368Z,49.23
2022-11-21T15:28:38.660Z,51.93
2022-11-21T15:31:51.179Z,51.33
2022-11-21T15:35:03.390Z,48.98
2022-11-21T15:38:28.652Z,47.68
2022-11-21T15:41:42.132Z,49.93
2022-11-21T15:45:08.152Z,51.20
2022-11-21T15:48:20.463Z,58.25
2022-11-21T15:51:59.993Z,54.55
2022-11-21T15:54:51.683Z,51.40
2022-11-21T15:58:04.149Z,47.43
2022-11-21T16:01:22.989Z,50.58
2022-11-21T16:04:36.039Z,49.25
2022-11-21T16:07:48.543Z,49.65
2022-11-21T16:11:01.010Z,47.80
2022-11-21T16:14:17.169Z,49.90
2022-11-21T16:17:29.349Z,51.27
2022-11-21T16:20:41.602Z,52.53
2022-11-21T16:23:53.786Z,49.35
2022-11-21T16:27:05.654Z,48.43
2022-11-21T16:30:19.837Z,50.13
2022-11-21T16:33:32.508Z,50.35
2022-11-21T16:36:44.380Z,51.95
2022-11-21T16:39:56.167Z,48.48
2022-11-21T16:43:15.483Z,46.95
2022-11-21T16:46:29.129Z,48.25
2022-11-21T16:49:43.532Z,51.43
2022-11-21T16:52:55.316Z,52.68
2022-11-21T16:59:50.099Z,48.00
2022-11-21T17:03:01.931Z,47.55
2022-11-21T17:06:14.757Z,50.30
2022-11-21T17:09:26.677Z,49.48
2022-11-21T17:12:42.707Z,50.48
2022-11-21T17:15:54.513Z,47.13
2022-11-21T17:19:08.511Z,48.15
2022-11-21T17:22:24.584Z,49.08
2022-11-21T17:25:34.743Z,49.55
2022-11-21T17:28:47.816Z,48.18
2022-11-21T17:31:59.784Z,44.65
2022-11-21T17:35:13.468Z,45.40
2022-11-21T17:38:25.543Z,47.65
2022-11-21T17:41:38.259Z,48.38
2022-11-21T17:44:50.090Z,45.38
2022-11-21T17:48:01.944Z,44.93
2022-11-21T17:51:16.928Z,44.25
2022-11-21T17:54:29.053Z,44.28
2022-11-21T17:57:41.267Z,46.33
2022-11-21T18:00:53.137Z,44.18
2022-11-21T18:04:14.692Z,43.38
2022-11-21T18:07:22.717Z,41.35
2022-11-21T18:10:43.442Z,43.18
2022-11-21T18:13:48.646Z,45.53
2022-11-21T18:17:01.224Z,44.25
2022-11-21T18:20:15.523Z,41.43
2022-11-21T18:23:27.218Z,39.85
2022-11-21T18:26:41.982Z,43.00
2022-11-21T18:29:53.625Z,41.50
2022-11-21T18:33:05.444Z,40.40
2022-11-21T18:36:18.446Z,40.48
2022-11-21T18:39:30.539Z,38.35
2022-11-21T18:42:42.546Z,42.60
2022-11-21T18:45:54.198Z,43.38
2022-11-21T18:49:08.057Z,41.38
2022-11-21T18:52:20.452Z,40.30
2022-11-21T18:55:32.303Z,39.38
2022-11-21T18:58:47.046Z,43.03
2022-11-21T19:02:01.912Z,45.03
2022-11-21T19:05:20.208Z,42.50
2022-11-21T19:08:29.762Z,39.48
2022-11-21T19:11:41.947Z,39.38
2022-11-21T19:14:55.583Z,43.60
2022-11-21T19:18:07.705Z,45.10
2022-11-21T19:21:21.357Z,43.50
2022-11-21T19:24:33.369Z,43.53
2022-11-21T19:27:45.173Z,41.18
2022-11-21T19:30:57.036Z,45.03
2022-11-21T19:34:09.200Z,43.18
2022-11-21T19:37:21.046Z,43.20
2022-11-21T19:40:35.805Z,42.30
2022-11-21T19:43:49.157Z,40.23
2022-11-21T19:47:01.027Z,42.10
2022-11-21T19:50:15.515Z,43.23
2022-11-21T19:53:27.410Z,43.93
2022-11-21T19:56:39.665Z,40.90
2022-11-21T19:59:52.059Z,43.75
2022-11-21T20:03:03.875Z,44.60
2022-11-21T20:06:20.640Z,46.13
2022-11-21T20:09:34.750Z,50.65
2022-11-21T20:12:46.600Z,46.28
2022-11-21T20:15:58.508Z,44.03
2022-11-21T20:19:14.710Z,44.08
2022-11-21T20:22:28.774Z,48.23
2022-11-21T20:25:40.737Z,47.05
2022-11-21T20:28:55.634Z,46.35
2022-11-21T20:32:07.606Z,47.63
2022-11-21T20:35:19.620Z,46.10
2022-11-21T20:38:31.321Z,51.90
2022-11-21T20:41:43.894Z,50.60
2022-11-21T20:48:15.885Z,27.18
2022-11-21T20:54:39.769Z,21.63
2022-11-21T20:57:51.767Z,17.85
2022-11-21T21:01:04.224Z,15.83
2022-11-21T21:04:16.209Z,15.00
2022-11-21T21:07:28.251Z,14.85
2022-11-21T21:11:04.585Z,14.90
2022-11-21T21:13:55.309Z,16.08
2022-11-21T21:17:07.253Z,18.60
2022-11-21T21:20:20.054Z,18.90
2022-11-21T21:23:34.059Z,18.98
2022-11-21T21:26:48.359Z,18.83
2022-11-21T21:30:00.415Z,18.65
2022-11-21T21:33:12.228Z,20.28
2022-11-21T21:36:26.472Z,19.83
2022-11-21T21:39:38.288Z,20.35
2022-11-21T21:42:50.069Z,20.43
2022-11-21T21:46:01.933Z,19.38
2022-11-21T21:49:13.713Z,19.93
2022-11-21T21:52:25.578Z,21.40
2022-11-21T21:55:37.462Z,23.18
2022-11-21T21:58:52.063Z,23.15
2022-11-21T22:02:04.346Z,23.18
2022-11-21T22:05:17.661Z,20.80
2022-11-21T22:08:29.659Z,19.48
2022-11-21T22:11:44.128Z,21.23
2022-11-21T22:14:55.922Z,20.38
2022-11-21T22:18:07.930Z,19.68
2022-11-21T22:21:25.467Z,22.13
2022-11-21T22:24:39.268Z,23.45
2022-11-21T22:27:51.601Z,24.25
2022-11-21T22:31:04.612Z,26.03
2022-11-21T22:34:18.024Z,24.50
2022-11-21T22:37:29.883Z,24.15
2022-11-21T22:40:42.966Z,22.03
2022-11-21T22:43:58.921Z,22.38
2022-11-21T22:47:10.781Z,22.53
2022-11-21T22:50:24.472Z,22.28
2022-11-21T22:53:40.193Z,30.28
2022-11-21T22:56:53.447Z,20.80
2022-11-21T23:00:07.118Z,20.15
2022-11-21T23:03:19.339Z,19.40
2022-11-21T23:06:32.508Z,20.50
2022-11-21T23:09:44.202Z,20.10
2022-11-21T23:12:55.884Z,20.63
2022-11-21T23:16:08.533Z,18.58
2022-11-21T23:19:20.236Z,18.25
2022-11-21T23:22:32.018Z,19.48
2022-11-21T23:25:43.807Z,19.95
2022-11-21T23:28:55.564Z,20.60
2022-11-21T23:32:07.639Z,19.18
2022-11-21T23:35:19.600Z,17.73
2022-11-21T23:38:31.254Z,20.05
2022-11-21T23:41:43.365Z,19.10
2022-11-21T23:44:55.005Z,19.13
2022-11-21T23:48:06.721Z,19.15
2022-11-21T23:51:18.447Z,19.48
2022-11-21T23:54:30.099Z,19.18
2022-11-21T23:57:41.837Z,20.78
